Time;durP1;ratioP1;P1;durP2;ratioP2;P2;SDS_P1;SDS_P2;PMS_P1;PMS_P2;Temp;Humidity;BMP_temperature;BMP_pressure;BME280_temperature;BME280_humidity;BME280_pressure;Samples;Min_cycle;Max_cycle;Signal;HPM_P1;HPM_P2
2022/03/07 00:01:59;;;;;;;11.17;10.07;;;3.00;56.70;;;;;;5114147;28;20454;-58
2022/03/07 00:04:26;;;;;;;15.27;11.10;;;2.90;56.30;;;;;;5113830;28;20887;-58
2022/03/07 00:06:53;;;;;;;10.50;8.80;;;2.90;56.70;;;;;;5114034;28;20467;-58
2022/03/07 00:09:20;;;;;;;11.37;9.60;;;2.70;56.80;;;;;;5113823;28;20937;-59
2022/03/07 00:11:47;;;;;;;10.17;9.17;;;2.50;57.60;;;;;;5114552;28;20466;-58
2022/03/07 00:14:14;;;;;;;11.00;9.87;;;2.60;58.10;;;;;;5114033;28;20484;-58
2022/03/07 00:16:43;;;;;;;10.17;9.13;;;2.60;57.70;;;;;;5113634;28;20462;-58
2022/03/07 00:19:10;;;;;;;10.73;9.77;;;2.50;58.30;;;;;;5113964;28;20445;-59
2022/03/07 00:21:38;;;;;;;10.40;9.50;;;2.50;58.00;;;;;;5113608;28;20445;-58
2022/03/07 00:24:07;;;;;;;10.53;9.37;;;2.50;58.50;;;;;;5113518;28;20478;-59
2022/03/07 00:26:39;;;;;;;10.57;9.57;;;2.50;58.60;;;;;;5113964;28;20458;-58
2022/03/07 00:29:06;;;;;;;11.53;10.33;;;2.50;58.70;;;;;;5113447;28;20474;-59
2022/03/07 00:31:33;;;;;;;11.03;9.90;;;2.50;58.70;;;;;;5113914;28;20545;-58
2022/03/07 00:34:02;;;;;;;9.63;8.70;;;2.60;58.80;;;;;;5113827;28;20490;-58
2022/03/07 00:36:29;;;;;;;12.20;9.87;;;2.50;59.00;;;;;;5113749;28;20555;-58
2022/03/07 00:38:56;;;;;;;9.77;8.80;;;2.60;59.10;;;;;;5113550;28;20449;-58
2022/03/07 00:41:23;;;;;;;10.30;8.70;;;2.60;58.40;;;;;;5113723;28;20479;-59
2022/03/07 00:43:50;;;;;;;9.60;8.70;;;2.50;85.70;;;;;;5113472;28;20453;-59
2022/03/07 00:46:17;;;;;;;11.43;9.30;;;2.40;58.70;;;;;;5113512;28;20454;-58
2022/03/07 00:48:45;;;;;;;11.30;9.47;;;2.40;58.80;;;;;;5114955;28;20525;-60
2022/03/07 00:51:13;;;;;;;13.93;9.13;;;2.40;59.20;;;;;;5117540;28;20530;-58
2022/03/07 00:53:42;;;;;;;12.03;9.93;;;2.40;58.90;;;;;;5117178;28;20453;-58
2022/03/07 00:56:10;;;;;;;9.30;8.40;;;2.30;58.90;;;;;;5117565;28;20446;-58
2022/03/07 00:58:37;;;;;;;11.47;9.93;;;2.30;59.30;;;;;;5117082;28;20453;-58
2022/03/07 01:01:04;;;;;;;11.83;8.77;;;2.20;59.40;;;;;;5117304;28;20908;-58
2022/03/07 01:03:31;;;;;;;10.47;9.23;;;2.20;59.50;;;;;;5117331;28;20439;-59
2022/03/07 01:05:58;;;;;;;8.70;7.97;;;2.20;59.70;;;;;;5116922;28;20533;-58
2022/03/07 01:08:27;;;;;;;10.17;9.20;;;2.20;60.20;;;;;;5117246;28;20446;-58
2022/03/07 01:10:54;;;;;;;10.07;9.03;;;2.30;60.10;;;;;;5116844;28;20932;-57
2022/03/07 01:13:22;;;;;;;9.93;8.63;;;2.20;59.50;;;;;;5117704;28;20443;-58
2022/03/07 01:15:49;;;;;;;10.63;8.90;;;2.20;60.20;;;;;;5117075;28;20451;-59
2022/03/07 01:18:16;;;;;;;10.70;8.30;;;2.10;60.00;;;;;;5117045;28;20499;-59
2022/03/07 01:20:44;;;;;;;9.40;8.07;;;2.10;59.90;;;;;;5116589;28;20486;-59
2022/03/07 01:23:11;;;;;;;10.03;8.83;;;2.10;59.90;;;;;;5116625;28;20945;-59
2022/03/07 01:25:39;;;;;;;10.70;8.53;;;2.10;59.70;;;;;;5116851;28;20446;-59
2022/03/07 01:28:06;;;;;;;10.40;8.67;;;2.00;59.80;;;;;;5116220;28;20485;-58
2022/03/07 01:30:34;;;;;;;8.70;7.80;;;2.00;60.00;;;;;;5116804;28;20439;-57
2022/03/07 01:33:01;;;;;;;9.17;8.30;;;2.00;59.90;;;;;;5116755;28;20800;-58
2022/03/07 01:35:29;;;;;;;11.13;10.03;;;2.00;60.40;;;;;;5116428;28;20541;-59
2022/03/07 01:37:56;;;;;;;10.37;9.40;;;2.10;60.40;;;;;;5116640;27;20462;-58
2022/03/07 01:40:23;;;;;;;10.17;9.17;;;1.90;60.50;;;;;;5117012;28;20483;-58
2022/03/07 01:42:52;;;;;;;9.53;8.70;;;2.00;61.20;;;;;;5116254;28;20952;-58
2022/03/07 01:45:20;;;;;;;10.83;8.27;;;2.00;61.20;;;;;;5116215;28;20933;-59
2022/03/07 01:47:48;;;;;;;10.03;9.03;;;1.90;61.10;;;;;;5116393;28;20466;-58
2022/03/07 01:50:17;;;;;;;8.30;7.47;;;1.90;61.00;;;;;;5116367;28;20439;-59
2022/03/07 01:52:47;;;;;;;9.33;8.47;;;1.90;61.00;;;;;;5116386;28;20549;-58
2022/03/07 01:55:15;;;;;;;10.87;9.33;;;2.00;60.30;;;;;;5116213;28;20549;-58
2022/03/07 01:57:45;;;;;;;12.67;8.93;;;2.00;60.50;;;;;;5115924;28;21012;-58
2022/03/07 02:00:17;;;;;;;9.60;8.53;;;1.90;59.70;;;;;;5115048;28;20481;-57
2022/03/07 02:02:44;;;;;;;8.43;7.63;;;1.90;60.60;;;;;;5116245;28;20472;-59
2022/03/07 02:05:12;;;;;;;11.00;8.47;;;1.90;60.50;;;;;;5116086;28;20442;-59
2022/03/07 02:07:40;;;;;;;10.17;9.17;;;2.00;60.40;;;;;;5115705;28;20579;-58
2022/03/07 02:10:10;;;;;;;8.50;7.00;;;2.10;60.10;;;;;;5115797;28;20505;-58
2022/03/07 02:12:38;;;;;;;8.93;7.97;;;1.90;59.60;;;;;;5116038;28;20488;-58
2022/03/07 02:15:07;;;;;;;9.53;8.73;;;1.90;59.70;;;;;;5115909;28;20442;-58
2022/03/07 02:17:36;;;;;;;10.10;8.80;;;2.00;59.90;;;;;;5115521;28;20477;-57
2022/03/07 02:20:05;;;;;;;8.90;7.90;;;1.80;59.50;;;;;;5115734;28;20569;-58
2022/03/07 02:22:34;;;;;;;11.40;8.70;;;1.90;59.70;;;;;;5115460;28;20450;-58
2022/03/07 02:25:01;;;;;;;10.37;9.27;;;1.80;59.20;;;;;;5116443;28;20446;-58
2022/03/07 02:27:28;;;;;;;10.30;8.40;;;1.90;59.90;;;;;;5115106;28;20482;-58
2022/03/07 02:29:56;;;;;;;8.67;7.67;;;1.80;59.70;;;;;;5115439;28;20924;-58
2022/03/07 02:32:24;;;;;;;9.40;8.40;;;1.80;59.70;;;;;;5115319;28;21027;-58
2022/03/07 02:34:51;;;;;;;12.17;8.67;;;1.70;59.80;;;;;;5116329;28;20478;-58
2022/03/07 02:37:18;;;;;;;8.93;8.03;;;1.60;59.80;;;;;;5115772;28;20473;-58
2022/03/07 02:39:47;;;;;;;9.40;8.50;;;1.60;60.60;;;;;;5115420;28;20516;-58
2022/03/07 02:42:14;;;;;;;10.47;8.87;;;1.60;60.50;;;;;;5115361;28;20478;-58
2022/03/07 02:44:41;;;;;;;10.80;9.57;;;1.60;61.10;;;;;;5115093;28;20438;-58
2022/03/07 02:47:12;;;;;;;14.20;9.07;;;1.50;59.90;;;;;;5114945;28;21044;-58
2022/03/07 02:49:39;;;;;;;9.63;8.23;;;1.50;59.90;;;;;;5115042;28;20427;-58
2022/03/07 02:52:09;;;;;;;9.60;8.60;;;1.40;60.70;;;;;;5116086;28;20829;-58
2022/03/07 02:54:36;;;;;;;9.60;8.60;;;1.50;60.50;;;;;;5114875;28;20851;-58
2022/03/07 02:57:05;;;;;;;8.23;7.40;;;1.50;59.80;;;;;;5114856;28;20455;-58
2022/03/07 02:59:32;;;;;;;10.40;7.97;;;1.50;60.90;;;;;;5114795;28;20454;-58
2022/03/07 03:01:59;;;;;;;10.80;9.27;;;1.50;60.10;;;;;;5114669;28;20478;-59
2022/03/07 03:04:26;;;;;;;10.23;9.17;;;1.50;60.00;;;;;;5114950;28;20442;-58
2022/03/07 03:06:53;;;;;;;9.47;8.57;;;1.50;59.50;;;;;;5114775;28;20466;-58
2022/03/07 03:09:21;;;;;;;11.20;9.60;;;1.30;59.50;;;;;;5114605;28;21039;-59
2022/03/07 03:11:48;;;;;;;9.90;8.97;;;1.20;59.70;;;;;;5114835;28;20464;-58
2022/03/07 03:14:16;;;;;;;10.90;8.10;;;1.20;60.60;;;;;;5114834;28;20478;-58
2022/03/07 03:16:43;;;;;;;9.20;8.40;;;1.20;60.50;;;;;;5114710;28;20527;-59
2022/03/07 03:19:10;;;;;;;9.40;8.40;;;1.20;60.20;;;;;;5114403;28;20953;-58
2022/03/07 03:21:38;;;;;;;11.17;9.73;;;1.10;59.40;;;;;;5114602;28;20557;-57
2022/03/07 03:24:05;;;;;;;11.77;9.97;;;1.20;68.00;;;;;;5114553;28;20439;-58
2022/03/07 03:26:33;;;;;;;11.60;8.63;;;1.00;60.40;;;;;;5114594;28;20472;-58
2022/03/07 03:29:00;;;;;;;8.53;7.70;;;1.10;66.10;;;;;;5114247;28;20823;-58
2022/03/07 03:31:28;;;;;;;9.73;8.87;;;1.00;68.00;;;;;;5115364;28;20453;-58
2022/03/07 03:33:55;;;;;;;9.87;8.87;;;1.00;67.60;;;;;;5114484;28;20443;-58
2022/03/07 03:36:22;;;;;;;10.27;8.27;;;1.00;73.40;;;;;;5114381;28;20468;-58
2022/03/07 03:38:49;;;;;;;9.80;8.80;;;0.90;60.50;;;;;;5114135;28;20933;-58
2022/03/07 03:41:16;;;;;;;9.20;8.30;;;0.90;59.90;;;;;;5114297;28;20482;-59
2022/03/07 03:43:44;;;;;;;9.30;8.30;;;0.90;60.00;;;;;;5114374;28;20450;-59
2022/03/07 03:46:11;;;;;;;11.60;9.40;;;0.90;60.00;;;;;;5114036;28;20816;-59
2022/03/07 03:48:39;;;;;;;11.67;8.20;;;0.90;60.40;;;;;;5114368;28;20438;-58
2022/03/07 03:51:06;;;;;;;9.73;8.73;;;0.90;60.40;;;;;;5114244;28;20439;-57
2022/03/07 03:53:34;;;;;;;11.47;9.70;;;1.00;59.90;;;;;;5113925;28;20815;-58
2022/03/07 03:56:01;;;;;;;10.23;9.23;;;1.00;59.70;;;;;;5114309;28;20784;-58
2022/03/07 03:58:28;;;;;;;10.97;9.10;;;1.00;60.10;;;;;;5114200;28;20447;-58
2022/03/07 04:00:55;;;;;;;11.53;8.73;;;1.00;59.50;;;;;;5113797;28;20484;-57
2022/03/07 04:03:22;;;;;;;10.70;9.60;;;1.00;59.60;;;;;;5113902;28;20529;-58
2022/03/07 04:05:50;;;;;;;10.80;9.20;;;1.00;59.70;;;;;;5114165;28;20806;-58
2022/03/07 04:08:18;;;;;;;11.30;9.63;;;1.00;60.00;;;;;;5113769;28;20451;-57
2022/03/07 04:10:46;;;;;;;11.00;9.90;;;1.00;59.60;;;;;;5114167;28;20442;-58
2022/03/07 04:13:13;;;;;;;11.67;9.57;;;1.10;59.90;;;;;;5114101;28;20539;-58
2022/03/07 04:15:40;;;;;;;13.23;9.40;;;1.20;59.70;;;;;;5113769;28;20446;-58
2022/03/07 04:18:08;;;;;;;12.27;9.40;;;1.20;59.90;;;;;;5113702;28;20813;-57
2022/03/07 04:20:35;;;;;;;10.00;9.00;;;1.10;59.00;;;;;;5113926;28;20545;-58
2022/03/07 04:23:05;;;;;;;13.13;10.07;;;1.10;59.70;;;;;;5113742;28;20453;-58
2022/03/07 04:25:33;;;;;;;10.37;9.27;;;1.10;59.20;;;;;;5118145;28;20879;-58
2022/03/07 04:28:01;;;;;;;13.53;10.77;;;1.00;59.30;;;;;;5117618;28;20488;-58
2022/03/07 04:30:28;;;;;;;11.87;10.10;;;1.00;59.80;;;;;;5117683;27;20450;-58
2022/03/07 04:32:55;;;;;;;11.50;9.33;;;0.90;59.50;;;;;;5117960;28;20446;-59
2022/03/07 04:35:22;;;;;;;13.73;11.10;;;1.00;59.90;;;;;;5117588;28;20974;-59
2022/03/07 04:37:49;;;;;;;10.47;9.47;;;0.90;59.60;;;;;;5117399;28;20473;-58
2022/03/07 04:40:18;;;;;;;13.87;10.17;;;0.80;59.60;;;;;;5117449;28;20453;-59
2022/03/07 04:42:46;;;;;;;14.43;11.20;;;0.80;60.40;;;;;;5117361;28;20509;-58
2022/03/07 04:45:14;;;;;;;14.13;11.27;;;0.90;60.90;;;;;;5117711;28;20442;-59
2022/03/07 04:47:41;;;;;;;10.77;9.77;;;0.90;60.60;;;;;;5117569;28;20467;-59
2022/03/07 04:50:09;;;;;;;11.97;10.73;;;0.80;60.20;;;;;;5117630;28;20809;-58
2022/03/07 04:52:37;;;;;;;12.00;10.67;;;0.80;60.80;;;;;;5117549;28;20485;-59
2022/03/07 04:55:05;;;;;;;15.73;10.97;;;0.80;60.80;;;;;;5117500;28;20523;-58
2022/03/07 04:57:34;;;;;;;13.90;11.10;;;0.90;61.90;;;;;;5117131;28;20468;-58
2022/03/07 05:00:01;;;;;;;12.77;11.43;;;0.90;61.00;;;;;;5117100;28;20450;-58
2022/03/07 05:02:28;;;;;;;13.20;11.90;;;0.90;61.60;;;;;;5117300;28;20482;-58
2022/03/07 05:04:55;;;;;;;14.47;10.73;;;0.90;61.90;;;;;;5117326;28;20474;-58
2022/03/07 05:07:24;;;;;;;14.07;11.80;;;1.00;61.70;;;;;;5117225;28;20463;-58
2022/03/07 05:09:51;;;;;;;12.03;10.83;;;0.90;62.20;;;;;;5117231;28;20511;-58
2022/03/07 05:12:18;;;;;;;12.80;11.33;;;0.90;62.10;;;;;;5117203;28;20446;-58
2022/03/07 05:14:46;;;;;;;14.10;11.70;;;0.90;62.20;;;;;;5116815;28;20470;-58
2022/03/07 05:17:14;;;;;;;11.00;9.90;;;0.90;62.30;;;;;;5116705;28;20513;-58
2022/03/07 05:19:41;;;;;;;15.90;11.33;;;1.10;62.80;;;;;;5116976;28;20534;-58
2022/03/07 05:22:08;;;;;;;14.47;11.77;;;0.90;62.80;;;;;;5117371;28;20485;-58
2022/03/07 05:24:36;;;;;;;13.30;11.60;;;0.90;63.00;;;;;;5116854;28;20458;-59
2022/03/07 05:27:03;;;;;;;12.57;11.30;;;0.80;63.00;;;;;;5116352;28;20435;-58
2022/03/07 05:29:31;;;;;;;12.30;10.60;;;0.90;64.60;;;;;;5116910;28;20431;-58
2022/03/07 05:31:59;;;;;;;18.40;13.23;;;0.90;63.80;;;;;;5116731;28;20439;-58
2022/03/07 05:34:26;;;;;;;14.53;11.53;;;0.90;64.20;;;;;;5116300;28;20443;-58
2022/03/07 05:36:53;;;;;;;11.57;10.27;;;0.90;64.70;;;;;;5115872;28;20604;-59
2022/03/07 05:39:21;;;;;;;11.83;10.57;;;;;;;;;;5116585;28;20537;-59
2022/03/07 05:41:48;;;;;;;14.00;11.93;;;0.80;70.80;;;;;;5116196;28;20497;-59
2022/03/07 05:44:15;;;;;;;16.03;12.43;;;;;;;;;;5116195;28;20537;-59
2022/03/07 05:46:42;;;;;;;15.03;12.27;;;0.60;96.60;;;;;;5116077;28;20471;-58
2022/03/07 05:49:11;;;;;;;14.93;11.60;;;0.70;75.50;;;;;;5116386;28;20443;-58
2022/03/07 05:51:38;;;;;;;13.33;10.93;;;0.70;71.20;;;;;;5116252;28;20529;-58
2022/03/07 05:54:05;;;;;;;14.47;11.47;;;;;;;;;;5115819;28;20443;-58
2022/03/07 05:56:32;;;;;;;15.50;10.10;;;0.70;90.80;;;;;;5115908;28;20470;-58
2022/03/07 05:59:00;;;;;;;13.50;9.93;;;0.80;88.40;;;;;;5116303;28;20430;-58
2022/03/07 06:01:27;;;;;;;10.73;9.73;;;0.70;86.90;;;;;;5115683;28;20482;-58
2022/03/07 06:03:54;;;;;;;11.80;10.60;;;0.60;68.10;;;;;;5116138;28;20533;-58
2022/03/07 06:06:23;;;;;;;12.03;10.50;;;0.70;80.80;;;;;;5116064;28;20471;-58
2022/03/07 06:08:51;;;;;;;12.07;10.43;;;0.60;68.60;;;;;;5116000;28;20533;-58
2022/03/07 06:11:18;;;;;;;15.17;10.50;;;0.60;70.10;;;;;;5115534;28;20938;-58
2022/03/07 06:13:46;;;;;;;9.67;8.67;;;0.70;72.20;;;;;;5115386;28;20446;-58
2022/03/07 06:16:13;;;;;;;11.20;9.40;;;0.80;69.00;;;;;;5115467;28;20891;-59
2022/03/07 06:18:40;;;;;;;11.27;10.17;;;0.80;69.30;;;;;;5115468;28;20446;-57
2022/03/07 06:21:08;;;;;;;13.27;9.40;;;0.80;69.10;;;;;;5115455;28;20458;-57
2022/03/07 06:23:37;;;;;;;10.97;9.87;;;0.60;69.60;;;;;;5115160;28;20932;-57
2022/03/07 06:26:06;;;;;;;12.77;9.33;;;0.70;70.20;;;;;;5115735;28;20812;-57
2022/03/07 06:28:33;;;;;;;13.93;9.30;;;;;;;;;;5115025;28;20602;-57
2022/03/07 06:31:01;;;;;;;10.10;9.10;;;;;;;;;;5115360;28;20529;-56
2022/03/07 06:33:28;;;;;;;12.60;10.67;;;0.50;95.90;;;;;;5114823;28;20870;-57
2022/03/07 06:35:55;;;;;;;10.70;9.40;;;0.60;68.20;;;;;;5115028;28;20447;-58
2022/03/07 06:38:22;;;;;;;12.23;9.37;;;0.60;67.10;;;;;;5115085;28;20474;-58
2022/03/07 06:40:51;;;;;;;12.00;9.30;;;0.60;67.80;;;;;;5114825;28;20534;-58
2022/03/07 06:43:18;;;;;;;11.10;9.93;;;;;;;;;;5114653;28;20936;-58
2022/03/07 06:45:46;;;;;;;9.97;8.87;;;0.70;66.50;;;;;;5114963;28;20443;-58
2022/03/07 06:48:13;;;;;;;10.87;9.10;;;0.70;66.80;;;;;;5114816;28;20477;-58
2022/03/07 06:50:41;;;;;;;9.37;8.37;;;0.70;66.90;;;;;;5114758;28;20851;-57
2022/03/07 06:53:08;;;;;;;11.80;8.60;;;0.80;67.50;;;;;;5114802;28;20795;-58
2022/03/07 06:55:35;;;;;;;9.90;8.90;;;0.80;67.20;;;;;;5114947;28;20461;-58
2022/03/07 06:58:04;;;;;;;11.93;8.60;;;0.70;68.00;;;;;;5114545;28;20463;-58
2022/03/07 07:00:37;;;;;;;10.97;9.10;;;0.70;67.40;;;;;;5114918;28;20451;-57
2022/03/07 07:03:05;;;;;;;11.13;9.70;;;0.70;67.40;;;;;;5114504;28;20984;-58
2022/03/07 07:05:33;;;;;;;11.13;8.60;;;0.80;68.10;;;;;;5114900;28;20796;-58
2022/03/07 07:08:00;;;;;;;13.13;9.17;;;0.80;67.70;;;;;;5114455;28;20976;-58
2022/03/07 07:10:27;;;;;;;8.97;8.07;;;0.70;67.80;;;;;;5114426;28;20499;-58
2022/03/07 07:12:55;;;;;;;11.90;9.17;;;0.90;69.20;;;;;;5114285;28;20443;-58
2022/03/07 07:15:23;;;;;;;10.97;9.30;;;1.00;68.70;;;;;;5114797;28;20762;-58
2022/03/07 07:17:50;;;;;;;14.00;9.80;;;0.90;68.00;;;;;;5114592;28;20885;-58
2022/03/07 07:20:18;;;;;;;10.40;8.20;;;;;;;;;;5114473;28;20503;-58
2022/03/07 07:22:45;;;;;;;10.50;9.07;;;;;;;;;;5113945;28;20474;-58
2022/03/07 07:25:13;;;;;;;9.93;8.90;;;0.90;68.50;;;;;;5114026;28;20545;-58
2022/03/07 07:27:40;;;;;;;10.00;8.90;;;0.70;68.80;;;;;;5113992;28;20503;-58
2022/03/07 07:30:09;;;;;;;13.07;10.20;;;0.60;69.20;;;;;;5114473;28;20507;-57
2022/03/07 07:32:38;;;;;;;10.57;8.33;;;0.70;69.30;;;;;;5114020;28;20485;-58
2022/03/07 07:35:07;;;;;;;10.43;9.50;;;0.80;69.30;;;;;;5114479;28;20450;-57
2022/03/07 07:37:34;;;;;;;12.13;9.50;;;0.80;70.10;;;;;;5112786;28;20965;-57
2022/03/07 07:40:01;;;;;;;9.90;7.80;;;0.80;69.10;;;;;;5113776;28;20450;-57
2022/03/07 07:42:28;;;;;;;13.10;8.53;;;0.80;78.50;;;;;;5113667;28;21012;-58
2022/03/07 07:44:55;;;;;;;11.13;9.40;;;0.80;77.50;;;;;;5113617;28;20451;-57
2022/03/07 07:47:22;;;;;;;13.10;10.47;;;0.80;77.30;;;;;;5113651;28;20474;-58
2022/03/07 07:49:51;;;;;;;11.57;9.83;;;0.80;70.60;;;;;;5113588;28;20534;-58
2022/03/07 07:52:18;;;;;;;10.93;8.97;;;0.80;68.40;;;;;;5113041;28;20434;-57
2022/03/07 07:54:45;;;;;;;9.63;8.63;;;1.00;68.90;;;;;;5113754;28;20462;-57
2022/03/07 07:57:12;;;;;;;10.63;9.53;;;1.00;68.50;;;;;;5112701;28;20541;-58
2022/03/07 07:59:40;;;;;;;12.50;9.97;;;1.10;69.00;;;;;;5106985;28;20549;-58
2022/03/07 08:02:08;;;;;;;9.87;8.97;;;1.10;68.40;;;;;;5100179;28;20567;-58
2022/03/07 08:04:35;;;;;;;10.37;8.83;;;1.10;67.50;;;;;;5101171;28;20822;-58
2022/03/07 08:07:04;;;;;;;11.70;9.10;;;1.10;68.10;;;;;;5104411;28;20479;-58
2022/03/07 08:09:31;;;;;;;12.07;9.40;;;1.10;67.60;;;;;;5113462;28;20446;-58
2022/03/07 08:11:58;;;;;;;11.33;9.63;;;1.10;67.60;;;;;;5103859;28;20456;-57
2022/03/07 08:14:25;;;;;;;10.63;9.27;;;1.30;68.20;;;;;;5093152;28;20447;-58
2022/03/07 08:16:52;;;;;;;15.60;10.50;;;1.30;67.50;;;;;;5102917;28;20975;-58
2022/03/07 08:19:20;;;;;;;12.33;10.00;;;1.30;68.40;;;;;;5112840;28;20942;-57
2022/03/07 08:21:47;;;;;;;12.83;11.27;;;1.50;68.40;;;;;;5112590;28;20473;-57
2022/03/07 08:24:15;;;;;;;12.13;10.97;;;1.60;67.50;;;;;;5106313;28;20991;-58
2022/03/07 08:26:42;;;;;;;11.30;10.10;;;1.70;66.40;;;;;;5104376;28;20561;-58
2022/03/07 08:29:10;;;;;;;12.27;10.03;;;1.80;65.50;;;;;;5099139;28;20582;-58
2022/03/07 08:31:37;;;;;;;10.63;9.43;;;1.80;64.30;;;;;;5093023;28;20443;-58
2022/03/07 08:34:04;;;;;;;14.67;11.03;;;1.60;63.40;;;;;;5107842;28;20457;-58
2022/03/07 08:36:32;;;;;;;11.87;10.37;;;1.50;63.00;;;;;;5094744;28;20475;-58
2022/03/07 08:39:00;;;;;;;13.47;10.20;;;1.60;63.40;;;;;;5113561;28;20550;-58
2022/03/07 08:41:29;;;;;;;15.30;10.97;;;1.90;63.00;;;;;;5111517;28;20509;-58
2022/03/07 08:43:56;;;;;;;9.70;8.30;;;2.00;61.30;;;;;;5111628;28;20474;-58
2022/03/07 08:46:24;;;;;;;11.63;10.37;;;2.10;60.70;;;;;;5110641;28;20485;-58
2022/03/07 08:48:52;;;;;;;12.20;8.70;;;2.20;60.90;;;;;;5111475;28;20913;-58
2022/03/07 08:51:19;;;;;;;10.40;9.03;;;2.30;60.60;;;;;;5113128;28;20451;-58
2022/03/07 08:53:47;;;;;;;10.23;9.13;;;2.40;60.40;;;;;;5111806;28;20482;-58
2022/03/07 08:56:15;;;;;;;10.67;9.50;;;2.40;59.90;;;;;;5112187;28;20474;-58
2022/03/07 08:58:43;;;;;;;13.03;10.40;;;2.50;60.10;;;;;;5110526;28;20820;-58
2022/03/07 09:01:11;;;;;;;10.47;9.50;;;2.30;59.40;;;;;;5113361;28;20465;-58
2022/03/07 09:03:38;;;;;;;11.73;10.00;;;2.40;59.60;;;;;;5111747;28;21003;-61
2022/03/07 09:06:05;;;;;;;9.83;8.87;;;2.50;59.10;;;;;;5111995;28;20523;-57
2022/03/07 09:08:32;;;;;;;12.63;10.80;;;2.40;59.00;;;;;;5112675;28;20467;-58
2022/03/07 09:11:00;;;;;;;12.53;9.27;;;2.40;59.30;;;;;;5116377;28;20442;-58
2022/03/07 09:13:27;;;;;;;9.70;8.70;;;2.20;59.40;;;;;;5115150;28;20497;-58
2022/03/07 09:15:56;;;;;;;13.33;11.77;;;2.20;59.40;;;;;;5109383;28;20568;-58
2022/03/07 09:18:25;;;;;;;11.07;9.87;;;2.20;59.70;;;;;;5116758;28;20447;-57
2022/03/07 09:20:52;;;;;;;16.33;9.80;;;2.50;59.70;;;;;;5113420;27;20855;-58
2022/03/07 09:23:19;;;;;;;12.40;9.50;;;2.80;59.20;;;;;;5112301;28;20797;-58
2022/03/07 09:25:46;;;;;;;14.40;10.17;;;3.10;61.70;;;;;;5097144;28;20455;-58
2022/03/07 09:28:14;;;;;;;12.33;8.90;;;3.20;58.20;;;;;;5112315;28;20486;-57
2022/03/07 09:30:41;;;;;;;10.20;8.10;;;3.20;58.40;;;;;;5116512;28;20443;-58
2022/03/07 09:33:09;;;;;;;11.90;10.70;;;2.90;58.50;;;;;;5115544;28;20461;-57
2022/03/07 09:35:37;;;;;;;14.40;11.03;;;2.70;58.70;;;;;;5097787;28;20486;-57
2022/03/07 09:38:04;;;;;;;11.30;9.93;;;2.70;59.20;;;;;;5112702;28;20489;-57
2022/03/07 09:40:31;;;;;;;13.00;10.13;;;2.80;58.50;;;;;;5097424;28;20466;-57
2022/03/07 09:42:59;;;;;;;12.77;9.87;;;2.70;58.10;;;;;;5095792;28;20501;-57
2022/03/07 09:45:26;;;;;;;11.87;10.67;;;2.70;58.10;;;;;;5110388;28;20814;-57
2022/03/07 09:47:53;;;;;;;13.33;9.90;;;2.50;58.10;;;;;;5115088;28;20478;-57
2022/03/07 09:50:21;;;;;;;12.73;11.03;;;2.60;58.80;;;;;;5115999;28;20764;-57
2022/03/07 09:52:49;;;;;;;10.87;9.77;;;3.00;58.50;;;;;;5114640;28;20549;-57
2022/03/07 09:55:17;;;;;;;12.83;10.53;;;3.10;57.70;;;;;;5115100;28;20467;-58
2022/03/07 09:57:45;;;;;;;14.13;10.77;;;3.50;57.40;;;;;;5115272;28;20479;-58
2022/03/07 10:00:13;;;;;;;11.33;9.30;;;3.80;56.60;;;;;;5115339;28;20465;-58
2022/03/07 10:02:40;;;;;;;13.77;12.30;;;3.80;57.00;;;;;;5115990;28;20478;-58
2022/03/07 10:05:08;;;;;;;13.57;10.17;;;3.70;57.20;;;;;;5113892;28;20567;-58
2022/03/07 10:07:46;;;;;;;10.87;9.80;;;4.00;57.90;;;;;;5114485;28;20834;-59
2022/03/07 10:10:14;;;;;;;11.73;10.37;;;5.00;57.40;;;;;;5115694;28;20859;-58
2022/03/07 10:12:49;;;;;;;11.77;10.33;;;5.40;57.10;;;;;;5114722;28;20537;-59
2022/03/07 10:15:17;;;;;;;14.97;10.50;;;6.30;55.60;;;;;;5114968;28;20458;-59
2022/03/07 10:17:49;;;;;;;10.63;9.50;;;7.30;54.80;;;;;;5106424;28;20470;-59
2022/03/07 10:20:19;;;;;;;11.43;10.10;;;6.80;54.20;;;;;;5115679;28;20513;-59
2022/03/07 10:22:49;;;;;;;13.80;11.27;;;;;;;;;;5113863;27;20517;-58
2022/03/07 10:25:18;;;;;;;11.30;10.20;;;6.00;54.70;;;;;;5115398;28;20458;-58
2022/03/07 10:27:49;;;;;;;13.27;11.00;;;6.70;55.30;;;;;;5111906;28;20498;-58
2022/03/07 10:30:18;;;;;;;13.33;12.03;;;6.60;53.00;;;;;;5111056;28;20447;-57
2022/03/07 10:32:53;;;;;;;13.57;10.90;;;6.30;52.50;;;;;;5109376;28;20523;-58
2022/03/07 10:35:25;;;;;;;10.83;9.77;;;5.80;53.20;;;;;;5105239;28;20426;-58
2022/03/07 10:37:59;;;;;;;13.33;11.10;;;6.00;54.10;;;;;;5113437;28;20527;-57
2022/03/07 10:40:31;;;;;;;12.53;10.53;;;5.80;53.80;;;;;;5115652;28;20423;-58
2022/03/07 10:43:00;;;;;;;13.30;11.50;;;5.30;53.90;;;;;;5113739;28;20478;-58
2022/03/07 10:45:29;;;;;;;12.00;10.60;;;5.40;54.30;;;;;;5115664;28;20442;-58
2022/03/07 10:47:58;;;;;;;13.87;10.70;;;5.40;54.10;;;;;;5113588;28;20589;-58
2022/03/07 10:50:27;;;;;;;15.10;11.73;;;5.70;54.10;;;;;;5114965;28;20450;-57
2022/03/07 10:53:01;;;;;;;13.03;10.27;;;6.00;53.40;;;;;;5114226;28;20454;-59
2022/03/07 10:55:29;;;;;;;11.77;10.03;;;6.00;54.00;;;;;;5114558;28;20959;-59
2022/03/07 10:58:06;;;;;;;13.53;10.37;;;6.10;53.50;;;;;;5112817;28;20561;-59
2022/03/07 11:00:33;;;;;;;14.57;10.90;;;6.20;53.70;;;;;;5114153;28;20446;-58
2022/03/07 11:03:01;;;;;;;11.20;10.10;;;6.50;53.10;;;;;;5115051;28;20562;-58
2022/03/07 11:05:29;;;;;;;12.03;10.83;;;6.80;54.00;;;;;;5113739;28;20442;-59
2022/03/07 11:08:02;;;;;;;12.97;11.60;;;7.40;53.40;;;;;;5113959;28;20898;-59
2022/03/07 11:10:29;;;;;;;11.40;10.20;;;6.60;52.60;;;;;;5112772;28;20491;-59
2022/03/07 11:12:56;;;;;;;11.87;10.20;;;6.40;52.80;;;;;;5112030;28;20454;-59
2022/03/07 11:15:24;;;;;;;14.27;9.93;;;6.60;52.90;;;;;;5113821;28;20459;-59
2022/03/07 11:17:51;;;;;;;12.03;10.20;;;8.30;51.90;;;;;;5100018;28;20558;-58
2022/03/07 11:20:19;;;;;;;12.00;10.90;;;8.90;50.50;;;;;;5094139;28;20454;-59
2022/03/07 11:22:46;;;;;;;13.17;10.80;;;9.10;51.60;;;;;;5106475;28;20824;-59
2022/03/07 11:25:16;;;;;;;12.57;11.33;;;9.30;50.40;;;;;;5114460;28;20434;-58
2022/03/07 11:27:44;;;;;;;13.23;11.23;;;9.70;49.80;;;;;;5112635;28;20490;-58
2022/03/07 11:30:20;;;;;;;12.40;11.17;;;9.20;48.80;;;;;;5113440;28;20454;-58
2022/03/07 11:32:51;;;;;;;13.10;11.00;;;8.30;49.00;;;;;;5112771;28;20486;-59
2022/03/07 11:35:19;;;;;;;13.67;11.67;;;9.30;49.20;;;;;;5113939;28;20478;-59
2022/03/07 11:37:46;;;;;;;12.77;11.53;;;9.50;48.80;;;;;;5112690;28;21071;-59
2022/03/07 11:40:22;;;;;;;12.13;11.00;;;8.70;48.60;;;;;;5113341;28;20471;-58
2022/03/07 11:42:51;;;;;;;12.13;10.93;;;7.40;49.00;;;;;;5113174;28;20458;-58
2022/03/07 11:45:20;;;;;;;11.50;10.30;;;7.00;50.10;;;;;;5114061;28;20481;-59
2022/03/07 11:47:49;;;;;;;11.20;10.00;;;7.40;49.40;;;;;;5112560;28;20485;-58
2022/03/07 11:50:20;;;;;;;11.93;10.63;;;7.90;48.70;;;;;;5112777;28;20828;-58
2022/03/07 11:52:47;;;;;;;13.17;10.67;;;8.00;49.20;;;;;;5113600;28;20537;-58
2022/03/07 11:55:19;;;;;;;13.43;11.27;;;8.10;48.60;;;;;;5113451;28;20486;-58
2022/03/07 11:57:49;;;;;;;11.20;10.10;;;8.00;48.30;;;;;;5102544;28;20916;-59
2022/03/07 12:00:22;;;;;;;13.10;11.27;;;8.50;49.70;;;;;;5093815;28;20812;-59
2022/03/07 12:02:51;;;;;;;11.17;9.60;;;9.20;48.40;;;;;;5104275;28;20446;-59
2022/03/07 12:05:27;;;;;;;14.13;10.63;;;8.90;47.20;;;;;;5113521;28;20430;-59
2022/03/07 12:08:07;;;;;;;10.53;9.53;;;9.50;48.10;;;;;;5112987;28;20819;-59
2022/03/07 12:10:35;;;;;;;13.80;10.57;;;9.60;47.80;;;;;;5093225;28;20516;-59
2022/03/07 12:13:11;;;;;;;11.23;10.20;;;9.70;47.60;;;;;;5095805;28;20458;-58
2022/03/07 12:15:46;;;;;;;12.93;10.70;;;9.80;47.30;;;;;;5112899;28;20454;-58
2022/03/07 12:18:14;;;;;;;12.17;10.97;;;8.90;47.40;;;;;;5110962;28;20479;-58
2022/03/07 12:20:49;;;;;;;13.27;11.07;;;;;;;;;;5112990;28;20450;-59
2022/03/07 12:23:18;;;;;;;10.73;9.73;;;8.30;47.20;;;;;;5112545;28;20950;-59
2022/03/07 12:25:45;;;;;;;13.43;10.60;;;8.30;47.20;;;;;;5112609;28;20994;-59
2022/03/07 12:28:14;;;;;;;11.83;10.63;;;8.20;47.70;;;;;;5112699;28;20490;-60
2022/03/07 12:30:42;;;;;;;13.10;10.00;;;8.90;48.20;;;;;;5113141;28;20465;-59
2022/03/07 12:33:10;;;;;;;11.67;10.47;;;9.80;49.20;;;;;;5112028;28;20458;-59
2022/03/07 12:35:38;;;;;;;10.70;9.80;;;9.00;46.30;;;;;;5111913;28;20465;-58
2022/03/07 12:38:09;;;;;;;11.00;9.83;;;9.00;46.20;;;;;;5112706;28;20510;-59
2022/03/07 12:40:37;;;;;;;12.30;11.10;;;9.40;45.70;;;;;;5112372;28;20549;-58
2022/03/07 12:43:05;;;;;;;14.03;11.53;;;9.40;46.20;;;;;;5113004;28;20832;-57
2022/03/07 12:45:44;;;;;;;11.70;10.70;;;10.30;50.60;;;;;;5113180;28;20462;-57
2022/03/07 12:48:11;;;;;;;12.07;10.77;;;10.10;44.90;;;;;;5114036;28;21037;-57
2022/03/07 12:50:38;;;;;;;12.17;10.67;;;9.80;45.50;;;;;;5114874;28;20976;-57
2022/03/07 12:53:05;;;;;;;12.00;10.80;;;9.90;44.90;;;;;;5113471;28;20458;-57